ULLI

St Petersburg/Pulkovo

Airport
ICAO code
ULLI
Summary
ICAO Region
EUR
ICAO Territory
Location

St Petersburg, Russia,

Coordinates
59° 48' 1" N , 30° 15' 45" E
KCC
Metar
ULLI 280530Z 30002MPS 9999 OVC005 01/01 Q1020 R88/290050 NOSIG RMK OBST OBSC

Description

International airport serving city of St Petersburg, Russia.

Climatology

Humid Continental climate (Köppen climate classification Dfb) - Variable weather patterns and a large seasonal temperature variance. Summers are often warm and humid with frequent thunderstorms and winters can be very cold with frequent snowfall and persistent snow cover.

Runways

Designator Length Width Surface Rops
10L/28R 3397 60 CON Yes/Yes
10R/28L 3780 60 CON Yes/Yes

Airport map

Aerial View

SKYbrary Partners:

Safety knowledge contributed by: